sensor_id;sensor_type;location;lat;lon;timestamp;temperature;humidity
59311;DHT22;45078;51.654;21.250;2022-09-29T00:00:25;9.50;99.90
59311;DHT22;45078;51.654;21.250;2022-09-29T00:02:54;9.50;99.90
59311;DHT22;45078;51.654;21.250;2022-09-29T00:05:20;9.50;99.90
59311;DHT22;45078;51.654;21.250;2022-09-29T00:07:46;9.50;99.90
59311;DHT22;45078;51.654;21.250;2022-09-29T00:10:12;9.50;99.90
59311;DHT22;45078;51.654;21.250;2022-09-29T00:12:38;9.40;99.90
59311;DHT22;45078;51.654;21.250;2022-09-29T00:15:05;9.40;99.90
59311;DHT22;45078;51.654;21.250;2022-09-29T00:17:30;9.40;99.90
59311;DHT22;45078;51.654;21.250;2022-09-29T00:19:56;9.50;99.90
59311;DHT22;45078;51.654;21.250;2022-09-29T00:22:23;9.50;99.90
59311;DHT22;45078;51.654;21.250;2022-09-29T00:24:49;9.50;99.90
59311;DHT22;45078;51.654;21.250;2022-09-29T00:27:16;9.50;99.90
59311;DHT22;45078;51.654;21.250;2022-09-29T00:29:42;9.50;99.90
59311;DHT22;45078;51.654;21.250;2022-09-29T00:32:08;9.50;99.90
59311;DHT22;45078;51.654;21.250;2022-09-29T00:34:34;9.50;99.90
59311;DHT22;45078;51.654;21.250;2022-09-29T00:37:00;9.40;99.90
59311;DHT22;45078;51.654;21.250;2022-09-29T00:39:26;9.40;99.90
59311;DHT22;45078;51.654;21.250;2022-09-29T00:41:52;9.40;99.90
59311;DHT22;45078;51.654;21.250;2022-09-29T00:47:01;9.50;99.90
59311;DHT22;45078;51.654;21.250;2022-09-29T00:49:48;9.50;99.90
59311;DHT22;45078;51.654;21.250;2022-09-29T00:52:41;9.50;99.90
59311;DHT22;45078;51.654;21.250;2022-09-29T00:57:52;9.40;99.90
59311;DHT22;45078;51.654;21.250;2022-09-29T01:00:19;9.40;99.90
59311;DHT22;45078;51.654;21.250;2022-09-29T01:02:49;9.30;99.90
59311;DHT22;45078;51.654;21.250;2022-09-29T01:05:20;9.30;99.90
59311;DHT22;45078;51.654;21.250;2022-09-29T01:07:48;9.30;99.90
59311;DHT22;45078;51.654;21.250;2022-09-29T01:10:15;9.40;99.90
59311;DHT22;45078;51.654;21.250;2022-09-29T01:12:43;9.50;99.90
59311;DHT22;45078;51.654;21.250;2022-09-29T01:15:10;9.50;99.90
59311;DHT22;45078;51.654;21.250;2022-09-29T01:17:37;9.50;99.90
59311;DHT22;45078;51.654;21.250;2022-09-29T01:34:39;9.60;99.90
59311;DHT22;45078;51.654;21.250;2022-09-29T01:37:20;9.70;99.90
59311;DHT22;45078;51.654;21.250;2022-09-29T01:46:23;9.70;99.90
59311;DHT22;45078;51.654;21.250;2022-09-29T01:48:53;9.70;99.90
59311;DHT22;45078;51.654;21.250;2022-09-29T01:51:27;9.60;99.90
59311;DHT22;45078;51.654;21.250;2022-09-29T01:53:58;9.60;99.90
59311;DHT22;45078;51.654;21.250;2022-09-29T01:56:29;9.70;99.90
59311;DHT22;45078;51.654;21.250;2022-09-29T01:59:18;9.60;99.90
59311;DHT22;45078;51.654;21.250;2022-09-29T02:01:46;9.60;99.90
59311;DHT22;45078;51.654;21.250;2022-09-29T02:04:19;9.70;99.90
59311;DHT22;45078;51.654;21.250;2022-09-29T02:06:57;9.70;99.90
59311;DHT22;45078;51.654;21.250;2022-09-29T02:09:28;9.60;99.90
59311;DHT22;45078;51.654;21.250;2022-09-29T02:11:55;9.60;99.90
59311;DHT22;45078;51.654;21.250;2022-09-29T02:14:28;9.60;99.90
59311;DHT22;45078;51.654;21.250;2022-09-29T02:17:03;9.60;99.90
59311;DHT22;45078;51.654;21.250;2022-09-29T02:19:33;9.70;99.90
59311;DHT22;45078;51.654;21.250;2022-09-29T02:22:01;9.60;99.90
59311;DHT22;45078;51.654;21.250;2022-09-29T02:24:27;9.60;99.90
59311;DHT22;45078;51.654;21.250;2022-09-29T02:26:53;9.60;99.90
59311;DHT22;45078;51.654;21.250;2022-09-29T02:29:19;9.50;99.90
59311;DHT22;45078;51.654;21.250;2022-09-29T02:31:46;9.60;99.90
59311;DHT22;45078;51.654;21.250;2022-09-29T02:34:15;9.60;99.90
59311;DHT22;45078;51.654;21.250;2022-09-29T02:37:01;9.60;99.90
59311;DHT22;45078;51.654;21.250;2022-09-29T02:47:58;9.60;99.90
59311;DHT22;45078;51.654;21.250;2022-09-29T02:56:24;9.70;99.90
59311;DHT22;45078;51.654;21.250;2022-09-29T02:59:14;9.60;99.90
59311;DHT22;45078;51.654;21.250;2022-09-29T03:01:52;9.50;99.90
59311;DHT22;45078;51.654;21.250;2022-09-29T03:04:20;9.50;99.90
59311;DHT22;45078;51.654;21.250;2022-09-29T03:06:46;9.40;99.90
59311;DHT22;45078;51.654;21.250;2022-09-29T03:09:12;9.40;99.90
59311;DHT22;45078;51.654;21.250;2022-09-29T03:11:38;9.40;99.90
59311;DHT22;45078;51.654;21.250;2022-09-29T03:14:04;9.40;99.90
59311;DHT22;45078;51.654;21.250;2022-09-29T03:16:32;9.30;99.90
59311;DHT22;45078;51.654;21.250;2022-09-29T03:18:58;9.30;99.90
59311;DHT22;45078;51.654;21.250;2022-09-29T03:21:24;9.30;99.90
59311;DHT22;45078;51.654;21.250;2022-09-29T03:23:49;9.30;99.90
59311;DHT22;45078;51.654;21.250;2022-09-29T03:26:15;9.40;99.90
59311;DHT22;45078;51.654;21.250;2022-09-29T03:28:41;9.40;99.90
59311;DHT22;45078;51.654;21.250;2022-09-29T03:31:08;9.40;99.90
59311;DHT22;45078;51.654;21.250;2022-09-29T03:33:38;9.40;99.90
59311;DHT22;45078;51.654;21.250;2022-09-29T03:36:05;9.40;99.90
59311;DHT22;45078;51.654;21.250;2022-09-29T03:38:32;9.30;99.90
59311;DHT22;45078;51.654;21.250;2022-09-29T03:40:58;9.30;99.90
59311;DHT22;45078;51.654;21.250;2022-09-29T03:43:24;9.30;99.90
59311;DHT22;45078;51.654;21.250;2022-09-29T03:45:54;9.30;99.90
59311;DHT22;45078;51.654;21.250;2022-09-29T03:48:20;9.20;99.90
59311;DHT22;45078;51.654;21.250;2022-09-29T03:50:48;9.20;99.90
59311;DHT22;45078;51.654;21.250;2022-09-29T03:53:15;9.20;99.90
59311;DHT22;45078;51.654;21.250;2022-09-29T03:55:45;9.10;99.90
59311;DHT22;45078;51.654;21.250;2022-09-29T03:58:11;9.10;99.90
59311;DHT22;45078;51.654;21.250;2022-09-29T04:00:37;9.20;99.90
59311;DHT22;45078;51.654;21.250;2022-09-29T04:03:03;9.30;99.90
59311;DHT22;45078;51.654;21.250;2022-09-29T04:05:29;9.30;99.90
59311;DHT22;45078;51.654;21.250;2022-09-29T04:07:55;9.40;99.90
59311;DHT22;45078;51.654;21.250;2022-09-29T04:10:21;9.30;99.90
59311;DHT22;45078;51.654;21.250;2022-09-29T04:12:47;9.30;99.90
59311;DHT22;45078;51.654;21.250;2022-09-29T04:15:13;9.20;99.90
59311;DHT22;45078;51.654;21.250;2022-09-29T04:17:39;9.10;99.90
59311;DHT22;45078;51.654;21.250;2022-09-29T04:20:05;9.10;99.90
59311;DHT22;45078;51.654;21.250;2022-09-29T04:22:32;9.20;99.90
59311;DHT22;45078;51.654;21.250;2022-09-29T04:24:58;9.20;99.90
59311;DHT22;45078;51.654;21.250;2022-09-29T04:27:24;9.10;99.90
59311;DHT22;45078;51.654;21.250;2022-09-29T04:29:50;9.00;99.90
59311;DHT22;45078;51.654;21.250;2022-09-29T04:32:15;9.00;99.90
59311;DHT22;45078;51.654;21.250;2022-09-29T04:34:41;9.00;99.90
59311;DHT22;45078;51.654;21.250;2022-09-29T04:37:08;9.00;99.90
59311;DHT22;45078;51.654;21.250;2022-09-29T04:39:37;9.00;99.90
59311;DHT22;45078;51.654;21.250;2022-09-29T04:42:03;9.10;99.90
59311;DHT22;45078;51.654;21.250;2022-09-29T04:44:28;8.90;99.90
59311;DHT22;45078;51.654;21.250;2022-09-29T04:46:54;8.90;99.90
59311;DHT22;45078;51.654;21.250;2022-09-29T04:49:20;9.00;99.90
59311;DHT22;45078;51.654;21.250;2022-09-29T04:51:46;9.00;99.90
59311;DHT22;45078;51.654;21.250;2022-09-29T04:54:12;8.90;99.90
59311;DHT22;45078;51.654;21.250;2022-09-29T04:56:38;8.90;99.90
59311;DHT22;45078;51.654;21.250;2022-09-29T04:59:04;8.90;99.90
59311;DHT22;45078;51.654;21.250;2022-09-29T05:01:30;8.80;99.90
59311;DHT22;45078;51.654;21.250;2022-09-29T05:03:56;8.80;99.90
59311;DHT22;45078;51.654;21.250;2022-09-29T05:06:22;8.80;99.90
59311;DHT22;45078;51.654;21.250;2022-09-29T05:08:48;8.80;99.90
59311;DHT22;45078;51.654;21.250;2022-09-29T05:11:14;8.80;99.90
59311;DHT22;45078;51.654;21.250;2022-09-29T05:13:41;8.70;99.90
59311;DHT22;45078;51.654;21.250;2022-09-29T05:16:07;8.80;99.90
59311;DHT22;45078;51.654;21.250;2022-09-29T05:18:32;8.70;99.90
59311;DHT22;45078;51.654;21.250;2022-09-29T05:21:06;8.80;99.90
59311;DHT22;45078;51.654;21.250;2022-09-29T05:23:32;8.80;99.90
59311;DHT22;45078;51.654;21.250;2022-09-29T05:26:06;8.80;99.90
59311;DHT22;45078;51.654;21.250;2022-09-29T05:28:33;8.90;99.90
59311;DHT22;45078;51.654;21.250;2022-09-29T05:31:06;8.90;99.90
59311;DHT22;45078;51.654;21.250;2022-09-29T05:33:32;8.90;99.90
59311;DHT22;45078;51.654;21.250;2022-09-29T05:35:58;9.00;99.90
59311;DHT22;45078;51.654;21.250;2022-09-29T05:38:25;8.90;99.90
59311;DHT22;45078;51.654;21.250;2022-09-29T05:40:51;8.90;99.90
59311;DHT22;45078;51.654;21.250;2022-09-29T05:43:20;8.90;99.90
59311;DHT22;45078;51.654;21.250;2022-09-29T05:45:46;8.80;99.90
59311;DHT22;45078;51.654;21.250;2022-09-29T05:48:12;8.90;99.90
59311;DHT22;45078;51.654;21.250;2022-09-29T05:50:38;8.90;99.90
59311;DHT22;45078;51.654;21.250;2022-09-29T05:53:12;8.90;99.90
59311;DHT22;45078;51.654;21.250;2022-09-29T05:55:38;8.90;99.90
59311;DHT22;45078;51.654;21.250;2022-09-29T05:58:05;9.00;99.90
59311;DHT22;45078;51.654;21.250;2022-09-29T06:00:31;9.10;99.90
59311;DHT22;45078;51.654;21.250;2022-09-29T06:03:01;9.20;99.90
59311;DHT22;45078;51.654;21.250;2022-09-29T06:05:27;9.00;99.90
59311;DHT22;45078;51.654;21.250;2022-09-29T06:07:53;9.10;99.90
59311;DHT22;45078;51.654;21.250;2022-09-29T06:10:20;9.10;99.90
59311;DHT22;45078;51.654;21.250;2022-09-29T06:12:46;9.20;99.90
59311;DHT22;45078;51.654;21.250;2022-09-29T06:15:12;9.20;99.90
59311;DHT22;45078;51.654;21.250;2022-09-29T06:17:38;9.20;99.90
59311;DHT22;45078;51.654;21.250;2022-09-29T06:20:05;9.20;99.90
59311;DHT22;45078;51.654;21.250;2022-09-29T06:22:32;9.30;99.90
59311;DHT22;45078;51.654;21.250;2022-09-29T06:24:58;9.20;99.90
59311;DHT22;45078;51.654;21.250;2022-09-29T06:27:24;9.20;99.90
59311;DHT22;45078;51.654;21.250;2022-09-29T06:29:50;9.20;99.90
59311;DHT22;45078;51.654;21.250;2022-09-29T06:32:16;9.20;99.90
59311;DHT22;45078;51.654;21.250;2022-09-29T06:34:42;9.20;99.90
59311;DHT22;45078;51.654;21.250;2022-09-29T06:37:26;9.20;99.90
59311;DHT22;45078;51.654;21.250;2022-09-29T06:40:06;9.20;99.90
59311;DHT22;45078;51.654;21.250;2022-09-29T06:42:33;9.40;99.90
59311;DHT22;45078;51.654;21.250;2022-09-29T06:44:59;9.30;99.90
59311;DHT22;45078;51.654;21.250;2022-09-29T06:47:25;9.30;99.90
59311;DHT22;45078;51.654;21.250;2022-09-29T06:49:51;9.40;99.90
59311;DHT22;45078;51.654;21.250;2022-09-29T06:52:17;9.50;99.90
59311;DHT22;45078;51.654;21.250;2022-09-29T06:54:43;9.50;99.90
59311;DHT22;45078;51.654;21.250;2022-09-29T06:57:09;9.40;99.90
59311;DHT22;45078;51.654;21.250;2022-09-29T06:59:34;9.40;99.90
59311;DHT22;45078;51.654;21.250;2022-09-29T07:02:00;9.40;99.90
59311;DHT22;45078;51.654;21.250;2022-09-29T07:04:27;9.40;99.90
59311;DHT22;45078;51.654;21.250;2022-09-29T07:06:53;9.50;99.90
59311;DHT22;45078;51.654;21.250;2022-09-29T07:09:19;9.60;99.90
59311;DHT22;45078;51.654;21.250;2022-09-29T07:11:47;9.60;99.90
59311;DHT22;45078;51.654;21.250;2022-09-29T07:14:20;9.70;99.90
59311;DHT22;45078;51.654;21.250;2022-09-29T07:16:47;9.70;99.90
59311;DHT22;45078;51.654;21.250;2022-09-29T07:19:14;9.60;99.90
59311;DHT22;45078;51.654;21.250;2022-09-29T07:21:41;9.50;99.90
59311;DHT22;45078;51.654;21.250;2022-09-29T07:24:07;9.60;99.90
59311;DHT22;45078;51.654;21.250;2022-09-29T07:26:34;9.60;99.90
59311;DHT22;45078;51.654;21.250;2022-09-29T07:28:59;9.60;99.90
59311;DHT22;45078;51.654;21.250;2022-09-29T07:31:25;9.60;99.90
59311;DHT22;45078;51.654;21.250;2022-09-29T07:33:51;9.60;99.90
59311;DHT22;45078;51.654;21.250;2022-09-29T07:36:18;9.70;99.90
59311;DHT22;45078;51.654;21.250;2022-09-29T07:38:49;9.90;99.90
59311;DHT22;45078;51.654;21.250;2022-09-29T07:41:16;10.00;99.90
59311;DHT22;45078;51.654;21.250;2022-09-29T07:43:42;10.00;99.90
59311;DHT22;45078;51.654;21.250;2022-09-29T07:46:08;9.90;99.90
59311;DHT22;45078;51.654;21.250;2022-09-29T07:48:35;9.90;99.90
59311;DHT22;45078;51.654;21.250;2022-09-29T07:51:07;10.10;99.90
59311;DHT22;45078;51.654;21.250;2022-09-29T07:53:35;10.20;99.90
59311;DHT22;45078;51.654;21.250;2022-09-29T07:56:19;10.10;99.90
59311;DHT22;45078;51.654;21.250;2022-09-29T07:58:46;10.00;99.90
59311;DHT22;45078;51.654;21.250;2022-09-29T08:01:14;10.10;99.90
59311;DHT22;45078;51.654;21.250;2022-09-29T08:03:42;10.10;99.90
59311;DHT22;45078;51.654;21.250;2022-09-29T08:06:10;10.10;99.90
59311;DHT22;45078;51.654;21.250;2022-09-29T08:08:37;10.10;99.90
59311;DHT22;45078;51.654;21.250;2022-09-29T08:11:11;10.10;99.90
59311;DHT22;45078;51.654;21.250;2022-09-29T08:13:38;10.20;99.90
59311;DHT22;45078;51.654;21.250;2022-09-29T08:16:07;10.20;99.90
59311;DHT22;45078;51.654;21.250;2022-09-29T08:18:34;10.20;99.90
59311;DHT22;45078;51.654;21.250;2022-09-29T08:21:04;10.30;99.90
59311;DHT22;45078;51.654;21.250;2022-09-29T08:23:34;10.40;99.90
59311;DHT22;45078;51.654;21.250;2022-09-29T08:26:08;10.40;99.90
59311;DHT22;45078;51.654;21.250;2022-09-29T08:28:35;10.30;99.90
59311;DHT22;45078;51.654;21.250;2022-09-29T08:31:22;10.20;99.90
59311;DHT22;45078;51.654;21.250;2022-09-29T08:33:49;10.30;99.90
59311;DHT22;45078;51.654;21.250;2022-09-29T08:36:19;10.40;99.90
59311;DHT22;45078;51.654;21.250;2022-09-29T08:38:50;10.40;99.90
59311;DHT22;45078;51.654;21.250;2022-09-29T08:49:53;10.50;99.90
59311;DHT22;45078;51.654;21.250;2022-09-29T08:52:35;10.70;99.90
59311;DHT22;45078;51.654;21.250;2022-09-29T09:20:47;11.00;99.90
59311;DHT22;45078;51.654;21.250;2022-09-29T09:25:59;11.20;99.90
59311;DHT22;45078;51.654;21.250;2022-09-29T09:28:42;11.20;99.90
59311;DHT22;45078;51.654;21.250;2022-09-29T09:36:22;11.20;99.90
59311;DHT22;45078;51.654;21.250;2022-09-29T09:39:03;11.20;99.90
59311;DHT22;45078;51.654;21.250;2022-09-29T09:41:33;11.20;99.90
59311;DHT22;45078;51.654;21.250;2022-09-29T09:44:22;11.30;99.90
59311;DHT22;45078;51.654;21.250;2022-09-29T09:46:59;11.20;99.90
59311;DHT22;45078;51.654;21.250;2022-09-29T09:49:35;11.30;99.90
59311;DHT22;45078;51.654;21.250;2022-09-29T09:52:17;11.30;99.90
59311;DHT22;45078;51.654;21.250;2022-09-29T09:54:46;11.40;99.90
59311;DHT22;45078;51.654;21.250;2022-09-29T10:00:22;11.90;99.90
59311;DHT22;45078;51.654;21.250;2022-09-29T10:02:52;12.00;99.90
59311;DHT22;45078;51.654;21.250;2022-09-29T10:05:25;11.80;99.90
59311;DHT22;45078;51.654;21.250;2022-09-29T10:07:54;11.80;99.90
59311;DHT22;45078;51.654;21.250;2022-09-29T10:10:25;11.90;99.90
59311;DHT22;45078;51.654;21.250;2022-09-29T10:13:04;11.80;99.90
59311;DHT22;45078;51.654;21.250;2022-09-29T10:15:41;11.80;99.90
59311;DHT22;45078;51.654;21.250;2022-09-29T10:20:42;12.10;99.90
59311;DHT22;45078;51.654;21.250;2022-09-29T10:23:35;12.10;99.90
59311;DHT22;45078;51.654;21.250;2022-09-29T10:26:16;12.10;99.90
59311;DHT22;45078;51.654;21.250;2022-09-29T10:28:59;12.10;99.90
59311;DHT22;45078;51.654;21.250;2022-09-29T10:36:55;12.20;99.90
59311;DHT22;45078;51.654;21.250;2022-09-29T10:39:41;12.30;99.90
59311;DHT22;45078;51.654;21.250;2022-09-29T10:42:34;12.40;99.90
59311;DHT22;45078;51.654;21.250;2022-09-29T10:47:36;12.40;99.90
59311;DHT22;45078;51.654;21.250;2022-09-29T10:52:52;12.50;99.90
59311;DHT22;45078;51.654;21.250;2022-09-29T10:57:47;12.40;99.90
59311;DHT22;45078;51.654;21.250;2022-09-29T11:00:30;12.50;99.90
59311;DHT22;45078;51.654;21.250;2022-09-29T11:06:09;12.70;99.90
59311;DHT22;45078;51.654;21.250;2022-09-29T11:17:27;12.80;99.90
59311;DHT22;45078;51.654;21.250;2022-09-29T11:20:02;12.60;99.90
59311;DHT22;45078;51.654;21.250;2022-09-29T11:25:48;12.30;99.90
59311;DHT22;45078;51.654;21.250;2022-09-29T11:36:29;12.30;99.90
59311;DHT22;45078;51.654;21.250;2022-09-29T11:39:28;12.20;99.90
59311;DHT22;45078;51.654;21.250;2022-09-29T11:42:14;12.20;99.90
59311;DHT22;45078;51.654;21.250;2022-09-29T11:45:02;12.40;99.90
59311;DHT22;45078;51.654;21.250;2022-09-29T11:58:27;12.70;99.90
59311;DHT22;45078;51.654;21.250;2022-09-29T12:06:39;12.80;99.90
59311;DHT22;45078;51.654;21.250;2022-09-29T12:12:22;12.80;99.90
59311;DHT22;45078;51.654;21.250;2022-09-29T12:17:59;12.70;99.90
59311;DHT22;45078;51.654;21.250;2022-09-29T12:20:32;12.70;99.90
59311;DHT22;45078;51.654;21.250;2022-09-29T12:23:02;12.90;99.90
59311;DHT22;45078;51.654;21.250;2022-09-29T12:25:33;13.20;99.90
59311;DHT22;45078;51.654;21.250;2022-09-29T12:28:04;13.40;99.90
59311;DHT22;45078;51.654;21.250;2022-09-29T12:30:54;13.50;99.90
59311;DHT22;45078;51.654;21.250;2022-09-29T12:33:31;13.60;99.90
59311;DHT22;45078;51.654;21.250;2022-09-29T12:39:40;13.90;99.90
59311;DHT22;45078;51.654;21.250;2022-09-29T12:45:22;13.80;99.90
59311;DHT22;45078;51.654;21.250;2022-09-29T12:53:33;13.20;99.90
59311;DHT22;45078;51.654;21.250;2022-09-29T12:56:03;13.00;99.90
59311;DHT22;45078;51.654;21.250;2022-09-29T12:58:51;12.80;99.90
59311;DHT22;45078;51.654;21.250;2022-09-29T13:01:27;12.80;99.90
59311;DHT22;45078;51.654;21.250;2022-09-29T13:09:53;13.20;99.90
59311;DHT22;45078;51.654;21.250;2022-09-29T13:15:16;13.40;99.90
59311;DHT22;45078;51.654;21.250;2022-09-29T13:17:54;13.40;99.90
59311;DHT22;45078;51.654;21.250;2022-09-29T13:26:09;13.70;99.90
59311;DHT22;45078;51.654;21.250;2022-09-29T13:28:49;13.80;99.90
59311;DHT22;45078;51.654;21.250;2022-09-29T13:31:18;13.90;99.90
59311;DHT22;45078;51.654;21.250;2022-09-29T13:33:47;14.40;99.90
59311;DHT22;45078;51.654;21.250;2022-09-29T13:36:40;15.80;99.90
59311;DHT22;45078;51.654;21.250;2022-09-29T13:39:24;16.10;99.90
59311;DHT22;45078;51.654;21.250;2022-09-29T13:41:53;15.90;99.90
59311;DHT22;45078;51.654;21.250;2022-09-29T13:44:22;15.70;99.90
59311;DHT22;45078;51.654;21.250;2022-09-29T13:46:50;15.30;99.90
59311;DHT22;45078;51.654;21.250;2022-09-29T13:59:23;15.20;99.90
59311;DHT22;45078;51.654;21.250;2022-09-29T14:01:49;16.40;99.90
59311;DHT22;45078;51.654;21.250;2022-09-29T14:04:37;18.40;99.90
59311;DHT22;45078;51.654;21.250;2022-09-29T14:07:11;19.60;93.30
59311;DHT22;45078;51.654;21.250;2022-09-29T14:09:41;19.70;90.40
59311;DHT22;45078;51.654;21.250;2022-09-29T14:12:23;20.50;89.90
59311;DHT22;45078;51.654;21.250;2022-09-29T14:14:54;21.60;82.00
59311;DHT22;45078;51.654;21.250;2022-09-29T14:17:22;23.20;70.60
59311;DHT22;45078;51.654;21.250;2022-09-29T14:22:54;20.80;67.50
59311;DHT22;45078;51.654;21.250;2022-09-29T14:25:30;19.20;73.20
59311;DHT22;45078;51.654;21.250;2022-09-29T14:27:57;18.50;82.10
59311;DHT22;45078;51.654;21.250;2022-09-29T14:40:57;17.60;89.00
59311;DHT22;45078;51.654;21.250;2022-09-29T14:43:40;17.00;93.50
59311;DHT22;45078;51.654;21.250;2022-09-29T14:49:49;15.90;99.90
59311;DHT22;45078;51.654;21.250;2022-09-29T14:58:18;15.40;99.90
59311;DHT22;45078;51.654;21.250;2022-09-29T15:03:51;15.50;99.90
59311;DHT22;45078;51.654;21.250;2022-09-29T15:06:26;16.10;99.90
59311;DHT22;45078;51.654;21.250;2022-09-29T15:09:16;17.00;99.90
59311;DHT22;45078;51.654;21.250;2022-09-29T15:11:44;18.10;99.90
59311;DHT22;45078;51.654;21.250;2022-09-29T15:14:25;18.30;98.10
59311;DHT22;45078;51.654;21.250;2022-09-29T15:28:18;16.50;99.90
59311;DHT22;45078;51.654;21.250;2022-09-29T15:30:49;15.90;99.90
59311;DHT22;45078;51.654;21.250;2022-09-29T15:33:38;15.10;99.90
59311;DHT22;45078;51.654;21.250;2022-09-29T15:36:15;14.50;99.90
59311;DHT22;45078;51.654;21.250;2022-09-29T15:38:42;13.70;99.90
59311;DHT22;45078;51.654;21.250;2022-09-29T15:46:26;13.10;99.90
59311;DHT22;45078;51.654;21.250;2022-09-29T15:49:21;13.00;99.90
59311;DHT22;45078;51.654;21.250;2022-09-29T15:51:59;12.70;99.90
59311;DHT22;45078;51.654;21.250;2022-09-29T15:54:32;12.50;99.90
59311;DHT22;45078;51.654;21.250;2022-09-29T15:57:03;12.40;99.90
59311;DHT22;45078;51.654;21.250;2022-09-29T15:59:49;12.30;99.90
59311;DHT22;45078;51.654;21.250;2022-09-29T16:02:35;12.20;99.90
59311;DHT22;45078;51.654;21.250;2022-09-29T16:05:10;12.00;99.90
59311;DHT22;45078;51.654;21.250;2022-09-29T16:07:46;11.90;99.90
59311;DHT22;45078;51.654;21.250;2022-09-29T16:10:26;11.60;99.90
59311;DHT22;45078;51.654;21.250;2022-09-29T16:12:56;11.40;99.90
59311;DHT22;45078;51.654;21.250;2022-09-29T16:15:28;11.10;99.90
59311;DHT22;45078;51.654;21.250;2022-09-29T16:17:56;10.90;99.90
59311;DHT22;45078;51.654;21.250;2022-09-29T16:20:26;10.80;99.90
59311;DHT22;45078;51.654;21.250;2022-09-29T16:22:52;10.70;99.90
59311;DHT22;45078;51.654;21.250;2022-09-29T16:25:25;10.50;99.90
59311;DHT22;45078;51.654;21.250;2022-09-29T16:30:36;10.50;99.90
59311;DHT22;45078;51.654;21.250;2022-09-29T16:33:19;10.40;99.90
59311;DHT22;45078;51.654;21.250;2022-09-29T16:40:45;10.00;99.90
59311;DHT22;45078;51.654;21.250;2022-09-29T16:43:29;9.90;99.90
59311;DHT22;45078;51.654;21.250;2022-09-29T16:45:58;9.90;99.90
59311;DHT22;45078;51.654;21.250;2022-09-29T16:48:27;9.80;99.90
59311;DHT22;45078;51.654;21.250;2022-09-29T16:50:55;9.90;99.90
59311;DHT22;45078;51.654;21.250;2022-09-29T16:53:30;9.80;99.90
59311;DHT22;45078;51.654;21.250;2022-09-29T16:56:02;9.80;99.90
59311;DHT22;45078;51.654;21.250;2022-09-29T16:58:29;9.80;99.90
59311;DHT22;45078;51.654;21.250;2022-09-29T17:00:56;9.80;99.90
59311;DHT22;45078;51.654;21.250;2022-09-29T17:03:22;9.80;99.90
59311;DHT22;45078;51.654;21.250;2022-09-29T17:05:48;9.80;99.90
59311;DHT22;45078;51.654;21.250;2022-09-29T17:08:20;9.70;99.90
59311;DHT22;45078;51.654;21.250;2022-09-29T17:10:51;9.70;99.90
59311;DHT22;45078;51.654;21.250;2022-09-29T17:13:17;9.70;99.90
59311;DHT22;45078;51.654;21.250;2022-09-29T17:15:45;9.70;99.90
59311;DHT22;45078;51.654;21.250;2022-09-29T17:18:14;9.60;99.90
59311;DHT22;45078;51.654;21.250;2022-09-29T17:20:40;9.60;99.90
59311;DHT22;45078;51.654;21.250;2022-09-29T17:23:06;9.50;99.90
59311;DHT22;45078;51.654;21.250;2022-09-29T17:25:35;9.50;99.90
59311;DHT22;45078;51.654;21.250;2022-09-29T17:28:01;9.40;99.90
59311;DHT22;45078;51.654;21.250;2022-09-29T17:30:42;9.40;99.90
59311;DHT22;45078;51.654;21.250;2022-09-29T17:33:10;9.40;99.90
59311;DHT22;45078;51.654;21.250;2022-09-29T17:35:39;9.40;99.90
59311;DHT22;45078;51.654;21.250;2022-09-29T17:38:06;9.50;99.90
59311;DHT22;45078;51.654;21.250;2022-09-29T17:41:07;9.50;99.90
59311;DHT22;45078;51.654;21.250;2022-09-29T17:43:33;9.40;99.90
59311;DHT22;45078;51.654;21.250;2022-09-29T17:45:59;9.50;99.90
59311;DHT22;45078;51.654;21.250;2022-09-29T17:48:27;9.40;99.90
59311;DHT22;45078;51.654;21.250;2022-09-29T17:50:54;9.30;99.90
59311;DHT22;45078;51.654;21.250;2022-09-29T17:53:22;9.30;99.90
59311;DHT22;45078;51.654;21.250;2022-09-29T17:55:52;9.30;99.90
59311;DHT22;45078;51.654;21.250;2022-09-29T17:58:20;9.30;99.90
59311;DHT22;45078;51.654;21.250;2022-09-29T18:00:50;9.30;99.90
59311;DHT22;45078;51.654;21.250;2022-09-29T18:03:18;9.30;99.90
59311;DHT22;45078;51.654;21.250;2022-09-29T18:05:47;9.20;99.90
59311;DHT22;45078;51.654;21.250;2022-09-29T18:08:16;9.20;99.90
59311;DHT22;45078;51.654;21.250;2022-09-29T18:10:51;9.10;99.90
59311;DHT22;45078;51.654;21.250;2022-09-29T18:13:19;9.00;99.90
59311;DHT22;45078;51.654;21.250;2022-09-29T18:15:46;8.90;99.90
59311;DHT22;45078;51.654;21.250;2022-09-29T18:18:14;8.80;99.90
59311;DHT22;45078;51.654;21.250;2022-09-29T18:20:42;8.70;99.90
59311;DHT22;45078;51.654;21.250;2022-09-29T18:23:11;8.60;99.90
59311;DHT22;45078;51.654;21.250;2022-09-29T18:25:40;8.50;99.90
59311;DHT22;45078;51.654;21.250;2022-09-29T18:28:13;8.40;99.90
59311;DHT22;45078;51.654;21.250;2022-09-29T18:30:41;8.40;99.90
59311;DHT22;45078;51.654;21.250;2022-09-29T18:33:14;8.30;99.90
59311;DHT22;45078;51.654;21.250;2022-09-29T18:35:45;8.20;99.90
59311;DHT22;45078;51.654;21.250;2022-09-29T18:38:11;8.10;99.90
59311;DHT22;45078;51.654;21.250;2022-09-29T18:40:38;7.90;99.90
59311;DHT22;45078;51.654;21.250;2022-09-29T18:43:05;7.80;99.90
59311;DHT22;45078;51.654;21.250;2022-09-29T18:45:35;7.80;99.90
59311;DHT22;45078;51.654;21.250;2022-09-29T18:48:04;7.70;99.90
59311;DHT22;45078;51.654;21.250;2022-09-29T18:50:33;7.70;99.90
59311;DHT22;45078;51.654;21.250;2022-09-29T18:53:00;7.60;99.90
59311;DHT22;45078;51.654;21.250;2022-09-29T18:55:28;7.50;99.90
59311;DHT22;45078;51.654;21.250;2022-09-29T18:57:55;7.50;99.90
59311;DHT22;45078;51.654;21.250;2022-09-29T19:00:25;7.50;99.90
59311;DHT22;45078;51.654;21.250;2022-09-29T19:02:52;7.40;99.90
59311;DHT22;45078;51.654;21.250;2022-09-29T19:05:20;7.40;99.90
59311;DHT22;45078;51.654;21.250;2022-09-29T19:07:52;7.40;99.90
59311;DHT22;45078;51.654;21.250;2022-09-29T19:10:20;7.40;99.90
59311;DHT22;45078;51.654;21.250;2022-09-29T19:12:47;7.40;99.90
59311;DHT22;45078;51.654;21.250;2022-09-29T19:15:17;7.40;99.90
59311;DHT22;45078;51.654;21.250;2022-09-29T19:17:45;7.40;99.90
59311;DHT22;45078;51.654;21.250;2022-09-29T19:20:14;7.50;99.90
59311;DHT22;45078;51.654;21.250;2022-09-29T19:22:40;7.50;99.90
59311;DHT22;45078;51.654;21.250;2022-09-29T19:25:12;7.50;99.90
59311;DHT22;45078;51.654;21.250;2022-09-29T19:27:39;7.50;99.90
59311;DHT22;45078;51.654;21.250;2022-09-29T19:30:07;7.50;99.90
59311;DHT22;45078;51.654;21.250;2022-09-29T19:32:34;7.50;99.90
59311;DHT22;45078;51.654;21.250;2022-09-29T19:35:00;7.40;99.90
59311;DHT22;45078;51.654;21.250;2022-09-29T19:37:26;7.40;99.90
59311;DHT22;45078;51.654;21.250;2022-09-29T19:39:54;7.50;99.90